Time;durP1;ratioP1;P1;durP2;ratioP2;P2;SDS_P1;SDS_P2;PMS_P1;PMS_P2;Temp;Humidity;BMP_temperature;BMP_pressure;BME280_temperature;BME280_humidity;BME280_pressure;Samples;Min_cycle;Max_cycle;Signal;HPM_P1;HPM_P2
2021/12/12 00:01:27;;;;;;;68.82;30.95;;;;;;;4.95;100.00;101387.56;5013515;28;20106;-74
2021/12/12 00:03:56;;;;;;;65.30;31.08;;;;;;;4.96;100.00;101383.88;5011249;28;20033;-74
2021/12/12 00:06:26;;;;;;;53.65;28.05;;;;;;;4.92;100.00;101382.66;5007506;28;20128;-74
2021/12/12 00:08:56;;;;;;;74.78;30.38;;;;;;;4.95;100.00;101379.59;4992347;28;20408;-74
2021/12/12 00:11:24;;;;;;;62.90;31.58;;;;;;;4.97;100.00;101374.91;4996232;28;20030;-74
2021/12/12 00:14:09;;;;;;;62.65;29.98;;;;;;;4.98;100.00;101372.06;4992358;28;20030;-73
2021/12/12 00:16:38;;;;;;;70.80;30.25;;;;;;;4.97;100.00;101374.91;4991505;28;20393;-75
2021/12/12 00:19:04;;;;;;;66.18;30.20;;;;;;;5.01;100.00;101374.31;4991209;28;20120;-74
2021/12/12 00:21:31;;;;;;;86.10;40.05;;;;;;;5.11;100.00;101386.44;4998411;28;20037;-74
2021/12/12 00:23:58;;;;;;;65.32;31.40;;;;;;;5.14;100.00;101373.59;4992346;28;20036;-75
2021/12/12 00:26:23;;;;;;;80.63;40.53;;;;;;;5.16;100.00;101362.75;4992466;28;20743;-74
2021/12/12 00:28:54;;;;;;;73.32;36.28;;;;;;;5.19;100.00;101367.66;4991688;28;20029;-74
2021/12/12 00:31:22;;;;;;;73.47;35.10;;;;;;;5.16;100.00;101358.25;4992800;28;20069;-73
2021/12/12 00:33:54;;;;;;;72.78;34.80;;;;;;;5.23;100.00;101369.75;5007179;28;20288;-73
2021/12/12 00:36:20;;;;;;;67.45;33.78;;;;;;;5.12;100.00;101340.19;4992251;28;20233;-74
2021/12/12 00:38:54;;;;;;;75.38;36.30;;;;;;;5.27;100.00;101365.66;4992340;28;20123;-74
2021/12/12 00:41:32;;;;;;;64.35;31.67;;;;;;;5.28;100.00;101361.97;4990396;28;20029;-73
2021/12/12 00:44:05;;;;;;;67.00;29.23;;;;;;;5.32;100.00;101365.06;4992282;28;20065;-73
2021/12/12 00:46:32;;;;;;;59.65;30.05;;;;;;;5.34;100.00;101361.19;4997834;28;20718;-73
2021/12/12 00:49:01;;;;;;;55.20;24.77;;;;;;;5.30;100.00;101349.31;4992397;28;20037;-73
2021/12/12 00:51:30;;;;;;;73.75;25.83;;;;;;;5.33;100.00;101348.91;4991933;28;20038;-73
2021/12/12 00:53:56;;;;;;;54.53;25.77;;;;;;;5.37;100.00;101351.97;4994465;28;20033;-72
2021/12/12 00:56:22;;;;;;;49.92;21.65;;;;;;;5.38;100.00;101350.16;4992148;28;20123;-73
2021/12/12 00:58:52;;;;;;;48.17;22.15;;;;;;;5.37;100.00;101343.19;4992350;28;20425;-73
2021/12/12 01:01:25;;;;;;;45.80;21.08;;;;;;;5.40;100.00;101342.81;4996286;28;20061;-73
2021/12/12 01:03:58;;;;;;;63.70;29.08;;;;;;;5.39;100.00;101330.53;4962648;28;20087;-74
2021/12/12 01:06:24;;;;;;;55.67;29.52;;;;;;;5.47;100.00;101327.69;5012596;28;20049;-73
2021/12/12 01:08:51;;;;;;;63.22;26.25;;;;;;;5.45;100.00;101325.19;5012100;28;20034;-73
2021/12/12 01:11:42;;;;;;;69.53;30.73;;;;;;;5.43;100.00;101334.41;5011023;28;20040;-73
2021/12/12 01:14:11;;;;;;;51.33;23.85;;;;;;;5.45;100.00;101329.69;5011953;28;20041;-74
2021/12/12 01:16:46;;;;;;;54.78;23.65;;;;;;;5.47;100.00;101333.81;5011797;28;20044;-74
2021/12/12 01:19:18;;;;;;;48.25;22.90;;;;;;;5.50;100.00;101338.75;5011670;28;20417;-74
2021/12/12 01:21:49;;;;;;;51.40;22.90;;;;;;;5.47;100.00;101327.69;5010745;28;20029;-73
2021/12/12 01:24:24;;;;;;;47.85;22.75;;;;;;;5.45;100.00;101319.88;5013355;28;20033;-74
2021/12/12 01:26:53;;;;;;;49.47;23.58;;;;;;;5.55;100.00;101325.66;5011350;28;20311;-73
2021/12/12 01:29:21;;;;;;;54.92;25.50;;;;;;;5.56;100.00;101337.94;5010589;28;20120;-73
2021/12/12 01:31:47;;;;;;;55.58;28.90;;;;;;;5.55;100.00;101323.00;5010816;28;20500;-73
2021/12/12 01:34:20;;;;;;;54.75;24.30;;;;;;;5.59;100.00;101318.09;5010601;28;20112;-73
2021/12/12 01:39:38;;;;;;;50.72;24.00;;;;;;;5.51;100.00;101316.44;5011205;28;20493;-73
2021/12/12 01:42:20;;;;;;;50.92;25.63;;;;;;;5.61;100.00;101340.00;5011348;28;20075;-74
2021/12/12 01:44:50;;;;;;;56.35;25.77;;;;;;;5.61;100.00;101337.34;5015528;28;20038;-74
2021/12/12 01:47:20;;;;;;;56.17;24.67;;;;;;;5.64;100.00;101326.31;5009956;28;20129;-74
2021/12/12 01:49:49;;;;;;;47.47;22.25;;;;;;;5.71;100.00;101324.50;5023768;28;20382;-74
2021/12/12 01:52:19;;;;;;;46.40;26.35;;;;;;;5.67;100.00;101330.41;5025439;28;20033;-74
2021/12/12 01:54:53;;;;;;;45.70;21.55;;;;;;;5.65;100.00;101327.13;5009985;28;20448;-74
2021/12/12 01:57:27;;;;;;;47.00;20.90;;;;;;;5.67;100.00;101327.75;5014251;28;20065;-73
2021/12/12 01:59:56;;;;;;;39.72;21.55;;;;;;;5.71;100.00;101334.31;5010043;28;20033;-74
2021/12/12 02:02:31;;;;;;;40.05;24.17;;;;;;;5.76;100.00;101343.31;5011039;28;20059;-74
2021/12/12 02:05:14;;;;;;;34.80;20.20;;;;;;;5.83;100.00;101349.50;5009070;28;20440;-74
2021/12/12 02:07:45;;;;;;;34.97;19.10;;;;;;;5.85;100.00;101352.75;5010351;28;20361;-74
2021/12/12 02:10:23;;;;;;;125.28;88.07;;;;;;;5.90;100.00;101344.19;5009798;28;20045;-73
2021/12/12 02:12:51;;;;;;;44.53;23.63;;;;;;;5.91;100.00;101351.19;5009620;28;20439;-73
2021/12/12 02:15:19;;;;;;;37.53;19.58;;;;;;;5.92;100.00;101352.00;5007910;28;20122;-73
2021/12/12 02:17:47;;;;;;;37.97;18.75;;;;;;;5.93;100.00;101351.78;5014173;28;20682;-73
2021/12/12 02:20:30;;;;;;;36.28;18.80;;;;;;;5.93;100.00;101342.97;5009104;28;20120;-74
2021/12/12 02:36:29;;;;;;;54.67;23.20;;;;;;;6.01;100.00;101329.47;5012503;28;20098;-74
2021/12/12 02:38:55;;;;;;;37.35;19.52;;;;;;;6.01;100.00;101335.63;5009904;28;20086;-74
2021/12/12 02:41:25;;;;;;;48.47;21.65;;;;;;;6.00;100.00;101319.84;5010056;28;20040;-73
2021/12/12 02:43:54;;;;;;;45.78;22.92;;;;;;;6.00;100.00;101333.16;4999810;28;20890;-73
2021/12/12 02:46:28;;;;;;;46.30;19.30;;;;;;;5.97;100.00;101334.41;5025055;28;20444;-73
2021/12/12 02:49:03;;;;;;;45.50;23.38;;;;;;;6.00;100.00;101338.50;5006747;28;20454;-73
2021/12/12 02:51:29;;;;;;;37.15;19.92;;;;;;;5.97;100.00;101331.75;5011376;28;20040;-73
2021/12/12 02:53:57;;;;;;;51.40;24.33;;;;;;;5.96;100.00;101329.28;5015810;28;20032;-75
2021/12/12 02:56:41;;;;;;;50.42;25.42;;;;;;;6.02;100.00;101328.44;5010749;28;20033;-74
2021/12/12 02:59:15;;;;;;;56.35;27.67;;;;;;;6.02;100.00;101331.13;5010079;28;20436;-74
2021/12/12 03:01:54;;;;;;;53.85;25.88;;;;;;;6.04;100.00;101321.91;5007965;28;20542;-74
2021/12/12 03:04:24;;;;;;;61.95;29.75;;;;;;;6.04;100.00;101326.44;5012844;28;20199;-74
2021/12/12 03:06:49;;;;;;;60.35;29.05;;;;;;;6.00;100.00;101318.00;5008683;28;20063;-74
2021/12/12 03:09:15;;;;;;;50.22;26.42;;;;;;;6.09;100.00;101326.63;5012684;28;20041;-74
2021/12/12 03:11:41;;;;;;;53.70;25.60;;;;;;;6.03;100.00;101322.13;5014304;28;20037;-74
2021/12/12 03:14:10;;;;;;;59.67;30.52;;;;;;;6.09;100.00;101323.94;5009194;28;20032;-73
2021/12/12 03:16:39;;;;;;;49.97;26.35;;;;;;;6.08;100.00;101324.97;5009370;28;20026;-73
2021/12/12 03:19:05;;;;;;;50.40;24.65;;;;;;;6.09;100.00;101331.94;5008991;28;20060;-74
2021/12/12 03:21:33;;;;;;;46.40;24.05;;;;;;;6.09;100.00;101331.94;5008272;28;20044;-74
2021/12/12 03:24:13;;;;;;;47.05;23.63;;;;;;;6.17;100.00;101334.41;5009056;28;20546;-74
2021/12/12 03:26:42;;;;;;;47.50;23.65;;;;;;;6.14;100.00;101334.84;5011895;28;20041;-74
2021/12/12 03:29:08;;;;;;;51.38;23.33;;;;;;;6.19;100.00;101337.72;5023984;28;20041;-74
2021/12/12 03:31:45;;;;;;;53.90;24.20;;;;;;;6.23;100.00;101327.47;5009862;28;20084;-73
2021/12/12 03:34:16;;;;;;;51.30;24.05;;;;;;;6.25;100.00;101328.06;5009257;28;20118;-74
2021/12/12 03:36:44;;;;;;;48.53;23.33;;;;;;;6.24;100.00;101324.59;5008546;28;20025;-74
2021/12/12 03:39:21;;;;;;;48.20;24.02;;;;;;;6.29;100.00;101326.66;5018877;28;20203;-73
2021/12/12 03:41:50;;;;;;;50.50;24.15;;;;;;;6.29;100.00;101324.81;5009302;28;20028;-74
2021/12/12 03:44:21;;;;;;;48.38;24.25;;;;;;;6.35;100.00;101321.31;5008431;28;20057;-74
2021/12/12 03:46:51;;;;;;;53.30;26.65;;;;;;;6.36;100.00;101314.97;5009125;28;20529;-74
2021/12/12 03:49:17;;;;;;;52.63;25.00;;;;;;;6.39;100.00;101317.22;5009013;28;20033;-76
2021/12/12 03:51:43;;;;;;;58.95;25.98;;;;;;;6.41;100.00;101331.16;5008985;28;20053;-74
2021/12/12 03:54:09;;;;;;;62.03;26.02;;;;;;;6.42;100.00;101321.28;5023527;28;20029;-74
2021/12/12 03:56:35;;;;;;;44.47;24.73;;;;;;;6.47;100.00;101325.00;5007275;28;20083;-74
2021/12/12 03:59:01;;;;;;;55.85;25.20;;;;;;;6.49;100.00;101322.13;4982939;28;20032;-74
2021/12/12 04:01:33;;;;;;;53.83;25.15;;;;;;;6.55;100.00;101309.81;5009066;28;20079;-73
2021/12/12 04:04:12;;;;;;;51.42;25.58;;;;;;;6.53;100.00;101314.56;5008632;28;20033;-73
2021/12/12 04:06:38;;;;;;;62.00;26.27;;;;;;;6.62;100.00;101316.78;5007909;28;20049;-74
2021/12/12 04:09:07;;;;;;;54.33;26.40;;;;;;;6.57;100.00;101310.44;5008092;28;20257;-74
2021/12/12 04:11:38;;;;;;;62.20;28.30;;;;;;;6.66;100.00;101311.84;5009091;28;20190;-74
2021/12/12 04:14:04;;;;;;;58.40;27.67;;;;;;;6.67;100.00;101316.16;5017737;28;20021;-74
2021/12/12 04:16:32;;;;;;;51.67;26.27;;;;;;;6.62;100.00;101306.13;5011650;28;20029;-74
2021/12/12 04:19:00;;;;;;;55.58;27.00;;;;;;;6.75;100.00;101310.59;5016742;28;20468;-74
2021/12/12 04:21:27;;;;;;;59.35;26.38;;;;;;;6.76;100.00;101312.25;5026940;28;20087;-75
2021/12/12 04:23:55;;;;;;;57.83;28.30;;;;;;;6.73;100.00;101312.66;5011779;28;20029;-74
2021/12/12 04:26:25;;;;;;;64.00;28.77;;;;;;;6.75;100.00;101310.59;5012413;28;20033;-74
2021/12/12 04:29:18;;;;;;;63.55;28.50;;;;;;;6.68;100.00;101296.47;5011847;28;20626;-74
2021/12/12 04:31:51;;;;;;;66.28;29.55;;;;;;;6.71;100.00;101312.06;5012461;28;20091;-73
2021/12/12 04:34:31;;;;;;;70.85;29.08;;;;;;;6.75;100.00;101310.59;5015660;28;20072;-75
2021/12/12 04:37:00;;;;;;;69.97;29.98;;;;;;;6.82;100.00;101314.06;5020440;28;20488;-74
2021/12/12 04:39:38;;;;;;;84.07;31.60;;;;;;;6.79;100.00;101319.84;5018291;28;20491;-74
2021/12/12 04:42:09;;;;;;;69.75;30.48;;;;;;;6.82;100.00;101324.75;5013005;28;20255;-74
2021/12/12 04:44:38;;;;;;;79.70;32.88;;;;;;;6.84;100.00;101330.72;5015153;28;20060;-73
2021/12/12 04:49:57;;;;;;;78.80;30.92;;;;;;;6.87;100.00;101322.28;5013194;28;20075;-75
2021/12/12 04:52:27;;;;;;;90.57;32.25;;;;;;;6.90;100.00;101313.84;5026729;28;20052;-74
2021/12/12 04:55:11;;;;;;;75.40;31.88;;;;;;;6.95;100.00;101327.41;5010498;28;20515;-74
2021/12/12 04:57:45;;;;;;;93.97;32.05;;;;;;;7.00;100.00;101314.25;5011697;28;20064;-74
2021/12/12 05:00:21;;;;;;;85.85;33.22;;;;;;;6.98;100.00;101320.81;5011068;28;20033;-73
2021/12/12 05:03:08;;;;;;;76.82;30.38;;;;;;;7.03;100.00;101313.81;5010236;28;20033;-74
2021/12/12 05:05:59;;;;;;;90.97;31.23;;;;;;;7.08;100.00;101315.03;5010372;28;20049;-75
2021/12/12 05:09:03;;;;;;;76.57;31.42;;;;;;;7.14;100.00;101316.88;5012203;28;20315;-75
2021/12/12 05:11:39;;;;;;;91.63;31.15;;;;;;;7.11;100.00;101314.63;4998858;28;20575;-75
2021/12/12 05:14:21;;;;;;;96.00;32.10;;;;;;;7.14;100.00;101317.69;5026612;28;20162;-74
2021/12/12 05:16:47;;;;;;;81.70;30.35;;;;;;;7.12;100.00;101321.59;5011090;28;20063;-75
2021/12/12 05:19:16;;;;;;;98.30;33.28;;;;;;;7.17;100.00;101313.78;5027156;28;20064;-75
2021/12/12 05:21:48;;;;;;;89.97;31.13;;;;;;;7.19;100.00;101317.06;5015520;28;20286;-75
2021/12/12 05:24:15;;;;;;;90.47;30.77;;;;;;;7.23;100.00;101320.94;5014106;28;20036;-75
2021/12/12 05:26:45;;;;;;;95.00;32.10;;;;;;;7.27;100.00;101319.50;5017068;28;20197;-75
2021/12/12 05:29:19;;;;;;;89.03;32.58;;;;;;;7.25;100.00;101313.56;5010806;28;20614;-75
2021/12/12 05:31:55;;;;;;;92.72;33.33;;;;;;;7.30;100.00;101321.72;5010320;28;20514;-74
2021/12/12 05:34:24;;;;;;;92.10;32.50;;;;;;;7.36;100.00;101334.25;5024813;28;20612;-74
2021/12/12 05:36:53;;;;;;;;;;;;;;;7.34;100.00;101320.28;5010537;28;20817;-75
2021/12/12 05:39:18;;;;;;;94.10;31.42;;;;;;;7.37;100.00;101319.84;5010488;28;19921;-74
2021/12/12 05:41:45;;;;;;;98.38;32.10;;;;;;;7.38;100.00;101336.69;5015187;28;20029;-74
2021/12/12 05:44:13;;;;;;;86.03;31.98;;;;;;;7.40;100.00;101335.44;5010650;28;20061;-75
2021/12/12 05:46:41;;;;;;;100.55;32.95;;;;;;;7.40;100.00;101330.09;5009320;28;20029;-75
2021/12/12 05:49:07;;;;;;;102.88;32.55;;;;;;;7.42;100.00;101335.25;5015635;28;20032;-75
2021/12/12 05:51:33;;;;;;;102.55;33.10;;;;;;;7.36;100.00;101336.91;5009633;28;20483;-75
2021/12/12 05:54:01;;;;;;;101.88;34.58;;;;;;;7.40;100.00;101343.44;5009143;28;20022;-74
2021/12/12 05:56:33;;;;;;;100.30;32.83;;;;;;;7.41;100.00;101350.47;5011871;28;20499;-75
2021/12/12 05:58:59;;;;;;;97.22;32.95;;;;;;;7.41;100.00;101354.94;5013580;28;20043;-75
2021/12/12 06:01:25;;;;;;;100.80;33.95;;;;;;;7.41;100.00;101355.78;5016692;28;20033;-75
2021/12/12 06:03:51;;;;;;;112.25;32.85;;;;;;;7.40;100.00;101351.47;5018212;28;20523;-74
2021/12/12 06:06:24;;;;;;;120.10;34.33;;;;;;;7.49;100.00;101358.22;5019812;28;20090;-75
2021/12/12 06:08:52;;;;;;;103.72;33.03;;;;;;;7.49;100.00;101352.03;5020785;28;20041;-75
2021/12/12 06:11:24;;;;;;;123.70;35.65;;;;;;;7.50;100.00;101362.53;5010264;28;20843;-75
2021/12/12 06:13:53;;;;;;;109.60;34.83;;;;;;;7.57;100.00;101362.47;5015353;28;20583;-75
2021/12/12 06:16:22;;;;;;;129.48;33.38;;;;;;;7.54;100.00;101358.38;5012713;28;20123;-74
2021/12/12 06:18:55;;;;;;;103.40;33.45;;;;;;;7.55;100.00;101357.34;5013166;28;20033;-75
2021/12/12 06:21:21;;;;;;;113.88;33.95;;;;;;;7.59;100.00;101361.25;5010410;28;20071;-74
2021/12/12 06:23:49;;;;;;;114.60;36.28;;;;;;;7.58;100.00;101366.81;5009120;28;20433;-75
2021/12/12 06:26:17;;;;;;;117.25;34.83;;;;;;;7.64;100.00;101373.13;5011024;28;20484;-75
2021/12/12 06:28:47;;;;;;;126.55;35.90;;;;;;;7.68;100.00;101374.38;5025911;28;20496;-75
2021/12/12 06:31:13;;;;;;;129.73;34.58;;;;;;;7.68;100.00;101371.69;5010640;28;20033;-75
2021/12/12 06:33:41;;;;;;;139.35;35.95;;;;;;;7.70;100.00;101377.63;5016212;28;20056;-75
2021/12/12 06:36:11;;;;;;;150.32;36.60;;;;;;;7.74;100.00;101377.00;5015855;28;20025;-75
2021/12/12 06:38:39;;;;;;;124.15;34.25;;;;;;;7.75;100.00;101370.63;5010068;28;20055;-74
2021/12/12 06:41:06;;;;;;;126.28;33.63;;;;;;;7.77;100.00;101384.59;5012442;28;20220;-74
2021/12/12 06:43:34;;;;;;;119.30;32.65;;;;;;;7.74;100.00;101374.34;5016893;28;20035;-75
2021/12/12 06:46:01;;;;;;;132.07;33.67;;;;;;;7.79;100.00;101373.69;5011698;28;20536;-75
2021/12/12 06:48:29;;;;;;;111.15;32.10;;;;;;;7.82;100.00;101384.78;5026170;28;20029;-75
2021/12/12 06:50:56;;;;;;;107.28;32.20;;;;;;;7.81;100.00;101368.94;5002360;28;20037;-74
2021/12/12 06:53:27;;;;;;;117.63;32.70;;;;;;;7.86;100.00;101385.16;5024772;28;20303;-75
2021/12/12 06:55:56;;;;;;;116.80;30.17;;;;;;;7.93;100.00;101387.81;5011906;28;20116;-75
2021/12/12 06:58:24;;;;;;;104.10;30.75;;;;;;;7.95;100.00;101388.41;5011077;28;20512;-75
2021/12/12 07:00:57;;;;;;;114.18;31.55;;;;;;;7.96;100.00;101393.53;5004504;28;20116;-75
2021/12/12 07:03:23;;;;;;;118.43;30.80;;;;;;;8.01;100.00;101391.03;5013851;28;20563;-75
2021/12/12 07:05:48;;;;;;;100.68;29.17;;;;;;;8.04;100.00;101395.94;5002216;28;20042;-74
2021/12/12 07:08:19;;;;;;;106.03;30.92;;;;;;;8.09;100.00;101401.47;5012018;28;20033;-75
2021/12/12 07:10:48;;;;;;;102.60;29.80;;;;;;;8.07;100.00;101403.56;5019324;28;20653;-72
2021/12/12 07:13:14;;;;;;;104.00;29.20;;;;;;;8.09;100.00;101404.16;5011994;28;20183;-74
2021/12/12 07:15:55;;;;;;;107.78;30.63;;;;;;;8.08;100.00;101407.88;5025004;28;20045;-74
2021/12/12 07:18:27;;;;;;;120.38;31.40;;;;;;;8.09;100.00;101401.47;5012030;28;20464;-75
2021/12/12 07:20:58;;;;;;;100.90;31.85;;;;;;;8.05;100.00;101400.25;5011538;28;20040;-75
2021/12/12 07:23:23;;;;;;;122.57;31.17;;;;;;;8.06;100.00;101409.94;5013813;28;20036;-75
2021/12/12 07:25:52;;;;;;;112.00;30.17;;;;;;;8.10;100.00;101407.63;5010701;28;20121;-75
2021/12/12 07:28:18;;;;;;;119.80;31.35;;;;;;;8.02;100.00;101397.19;5008318;28;20034;-75
2021/12/12 07:30:44;;;;;;;131.70;31.75;;;;;;;8.11;100.00;101410.09;5022831;28;20036;-75
2021/12/12 07:33:10;;;;;;;119.65;28.92;;;;;;;8.11;100.00;101402.06;5007347;28;20064;-74
2021/12/12 07:35:39;;;;;;;121.30;30.58;;;;;;;8.08;100.00;101413.22;5023238;28;20287;-74
2021/12/12 07:38:16;;;;;;;111.07;30.27;;;;;;;8.06;100.00;101404.59;5008285;28;20021;-75
2021/12/12 07:40:47;;;;;;;103.50;27.30;;;;;;;8.18;100.00;101422.59;5009542;28;21867;-74
2021/12/12 07:43:13;;;;;;;124.90;29.77;;;;;;;8.15;100.00;101423.88;5011343;28;20069;-75
2021/12/12 07:45:41;;;;;;;113.53;28.10;;;;;;;8.07;100.00;101419.59;5022564;28;20033;-75
2021/12/12 07:48:11;;;;;;;109.60;28.13;;;;;;;8.11;100.00;101419.97;4997642;28;20045;-75
2021/12/12 07:50:38;;;;;;;108.80;28.25;;;;;;;8.14;100.00;101427.53;5023031;28;20032;-75
2021/12/12 07:53:04;;;;;;;95.95;25.67;;;;;;;8.22;100.00;101437.16;5004212;28;20723;-74
2021/12/12 07:55:30;;;;;;;100.78;25.95;;;;;;;8.19;100.00;101441.09;4996422;28;20542;-75
2021/12/12 07:57:56;;;;;;;105.90;26.23;;;;;;;8.11;100.00;101439.50;5028307;28;20032;-75
2021/12/12 08:00:24;;;;;;;93.30;24.33;;;;;;;8.20;100.00;101457.94;4996737;28;20599;-74
2021/12/12 08:02:51;;;;;;;104.03;25.25;;;;;;;8.24;100.00;101456.50;5012270;28;20038;-74
2021/12/12 08:05:18;;;;;;;95.13;25.20;;;;;;;8.22;100.00;101455.88;5012947;28;20118;-74
2021/12/12 08:07:44;;;;;;;85.43;24.00;;;;;;;8.12;100.00;101451.81;5013761;28;20323;-75
2021/12/12 08:10:14;;;;;;;84.03;22.75;;;;;;;8.24;100.00;101470.69;5012797;28;20484;-74
2021/12/12 08:12:42;;;;;;;101.85;23.02;;;;;;;8.24;100.00;101461.84;5006066;28;20119;-75
2021/12/12 08:15:11;;;;;;;93.25;22.70;;;;;;;8.20;100.00;101461.44;5017568;28;20544;-75
2021/12/12 08:17:38;;;;;;;121.10;24.35;;;;;;;8.16;100.00;101470.94;5017084;28;20485;-74
2021/12/12 08:20:06;;;;;;;73.22;21.23;;;;;;;8.25;100.00;101471.50;5003898;28;20070;-75
2021/12/12 08:22:33;;;;;;;68.88;19.42;;;;;;;8.15;100.00;101472.78;5020678;28;20132;-75
2021/12/12 08:24:59;;;;;;;79.75;19.52;;;;;;;8.22;100.00;101477.25;5004754;28;20056;-76
2021/12/12 08:27:25;;;;;;;73.35;19.60;;;;;;;8.21;100.00;101468.44;5017995;28;20262;-75
2021/12/12 08:29:51;;;;;;;82.30;20.30;;;;;;;8.21;100.00;101476.44;5011093;28;20040;-74
2021/12/12 08:32:18;;;;;;;122.03;22.20;;;;;;;8.20;100.00;101479.34;5011552;28;20114;-75
2021/12/12 08:34:46;;;;;;;87.43;21.45;;;;;;;8.12;100.00;101473.19;5016950;28;20040;-75
2021/12/12 08:37:14;;;;;;;71.53;18.85;;;;;;;8.23;100.00;101477.06;5012505;28;20044;-75
2021/12/12 08:39:40;;;;;;;84.82;20.80;;;;;;;8.32;100.00;101488.34;5013454;28;20749;-74
2021/12/12 08:42:09;;;;;;;73.80;19.55;;;;;;;8.29;100.00;101494.91;5011420;28;20034;-75
2021/12/12 08:44:37;;;;;;;78.87;19.73;;;;;;;8.32;100.00;101494.50;5021392;28;20558;-74
2021/12/12 08:47:06;;;;;;;76.93;19.85;;;;;;;8.34;100.00;101500.44;5013370;28;20500;-75
2021/12/12 08:49:34;;;;;;;77.32;20.00;;;;;;;8.32;100.00;101504.38;5012157;28;20029;-74
2021/12/12 08:52:12;;;;;;;70.65;19.63;;;;;;;8.37;100.00;101501.91;5026583;28;20045;-75
2021/12/12 08:54:40;;;;;;;69.20;19.45;;;;;;;8.37;100.00;101502.72;5011788;28;20029;-74
2021/12/12 08:57:20;;;;;;;71.68;19.77;;;;;;;8.40;100.00;101501.50;5012675;28;20030;-75
2021/12/12 08:59:49;;;;;;;67.43;20.90;;;;;;;8.37;100.00;101512.59;5011314;28;20044;-75
2021/12/12 09:02:17;;;;;;;69.93;20.38;;;;;;;8.33;100.00;101501.50;4999016;28;20063;-74
2021/12/12 09:04:55;;;;;;;64.70;20.70;;;;;;;8.38;100.00;101508.88;5015609;28;20717;-74
2021/12/12 09:07:31;;;;;;;78.07;21.42;;;;;;;8.40;100.00;101522.88;5013324;28;20033;-75
2021/12/12 09:10:04;;;;;;;59.58;19.10;;;;;;;8.43;100.00;101522.44;5011740;28;20072;-74
2021/12/12 09:12:36;;;;;;;65.57;19.55;;;;;;;8.48;100.00;101525.31;5013953;28;20083;-75
2021/12/12 09:15:10;;;;;;;69.13;19.25;;;;;;;8.50;100.00;101530.44;5011972;28;20039;-75
2021/12/12 09:17:55;;;;;;;60.42;19.20;;;;;;;8.48;100.00;101525.31;5012308;28;20391;-74
2021/12/12 09:20:36;;;;;;;59.58;18.08;;;;;;;8.42;100.00;101526.16;5000740;28;20453;-74
2021/12/12 09:23:09;;;;;;;49.35;17.55;;;;;;;8.53;100.00;101541.50;5012189;28;20079;-76
2021/12/12 09:25:42;;;;;;;51.33;16.98;;;;;;;8.52;100.00;101539.88;5017383;28;20734;-74
2021/12/12 09:28:30;;;;;;;60.05;18.88;;;;;;;8.55;100.00;101552.84;5012181;28;20500;-74
2021/12/12 09:31:04;;;;;;;44.92;16.98;;;;;;;8.56;100.00;101545.63;5012261;28;20040;-74
2021/12/12 09:33:39;;;;;;;68.75;18.00;;;;;;;8.53;100.00;101546.84;5012549;28;20608;-74
2021/12/12 09:36:10;;;;;;;55.90;15.75;;;;;;;8.55;100.00;101550.16;5027795;28;20106;-75
2021/12/12 09:38:43;;;;;;;60.38;14.75;;;;;;;8.63;100.00;101554.41;5025594;28;20057;-74
2021/12/12 09:41:23;;;;;;;55.35;15.13;;;;;;;8.67;100.00;101553.78;5002710;28;20636;-75
2021/12/12 09:44:08;;;;;;;47.63;14.45;;;;;;;8.69;100.00;101559.72;5009693;28;20211;-75
2021/12/12 09:53:10;;;;;;;60.85;15.88;;;;;;;8.61;100.00;101549.28;4982564;28;20061;-70
2021/12/12 09:55:55;;;;;;;46.10;13.48;;;;;;;8.64;100.00;101546.19;5002729;28;20030;-71
2021/12/12 09:58:51;;;;;;;55.95;14.70;;;;;;;8.66;100.00;101562.03;5013072;28;20111;-70
2021/12/12 10:01:21;;;;;;;59.80;14.00;;;;;;;8.62;100.00;101566.97;5009489;28;20087;-70
2021/12/12 10:04:08;;;;;;;52.30;15.07;;;;;;;8.61;100.00;101565.34;5009390;28;20025;-75
2021/12/12 10:06:54;;;;;;;69.35;16.48;;;;;;;8.62;100.00;101566.97;5015742;28;20461;-74
2021/12/12 10:09:24;;;;;;;49.58;13.45;;;;;;;8.56;100.00;101567.84;5016537;28;20052;-73
2021/12/12 10:11:59;;;;;;;64.68;15.10;;;;;;;8.58;100.00;101568.44;5017328;28;20070;-73
2021/12/12 10:14:48;;;;;;;66.45;16.13;;;;;;;8.62;100.00;101556.28;5018561;28;20287;-74
2021/12/12 10:17:17;;;;;;;40.42;14.75;;;;;;;8.62;100.00;101548.25;5011173;28;21909;-75
2021/12/12 10:19:42;;;;;;;69.05;16.90;;;;;;;8.74;100.00;101558.28;5009899;28;20131;-74
2021/12/12 10:22:34;;;;;;;81.72;17.48;;;;;;;8.70;100.00;101553.34;5012925;28;20086;-75
2021/12/12 10:25:04;;;;;;;88.55;19.55;;;;;;;8.72;100.00;101552.34;5013668;28;20599;-75
2021/12/12 10:27:51;;;;;;;74.30;19.00;;;;;;;8.79;100.00;101553.09;5012700;28;20052;-76
2021/12/12 10:30:21;;;;;;;88.50;20.60;;;;;;;8.81;100.00;101551.84;5016468;28;20038;-75
2021/12/12 10:33:05;;;;;;;74.93;18.88;;;;;;;8.87;100.00;101550.97;5009959;28;20063;-76
2021/12/12 10:35:39;;;;;;;70.60;19.30;;;;;;;8.93;100.00;101549.28;5009956;28;20032;-75
2021/12/12 10:38:10;;;;;;;86.72;19.65;;;;;;;9.02;100.00;101548.00;4999980;28;20667;-76
2021/12/12 10:40:45;;;;;;;58.17;17.70;;;;;;;9.04;100.00;101556.66;5010719;28;20033;-75
2021/12/12 10:43:12;;;;;;;74.45;19.77;;;;;;;9.01;100.00;101556.25;5008408;28;20037;-76
2021/12/12 10:45:44;;;;;;;90.60;21.50;;;;;;;8.97;100.00;101558.53;5015561;28;20644;-75
2021/12/12 10:48:09;;;;;;;;;;;;;;;8.95;100.00;101564.09;4986046;28;20080;-76
2021/12/12 10:50:44;;;;;;;79.75;19.40;;;;;;;8.88;100.00;101573.22;5011650;28;19971;-76
2021/12/12 10:53:47;;;;;;;66.60;19.30;;;;;;;8.87;100.00;101571.56;5010746;28;20034;-75
2021/12/12 10:56:40;;;;;;;82.18;20.05;;;;;;;8.74;100.00;101577.00;5003652;28;20077;-75
2021/12/12 10:59:31;;;;;;;77.68;18.48;;;;;;;8.70;100.00;101576.59;5011229;28;20595;-75
2021/12/12 11:02:03;;;;;;;73.50;18.90;;;;;;;8.74;100.00;101585.84;5027716;28;20029;-75
2021/12/12 11:04:52;;;;;;;86.70;19.10;;;;;;;8.76;100.00;101575.75;4997298;28;20041;-73
2021/12/12 11:07:22;;;;;;;71.85;18.17;;;;;;;8.79;100.00;101579.84;5027813;28;20052;-75
2021/12/12 11:10:05;;;;;;;85.47;19.17;;;;;;;8.76;100.00;101569.59;5014052;28;20037;-74
2021/12/12 11:12:55;;;;;;;95.18;19.45;;;;;;;8.80;100.00;101581.50;5012297;28;20141;-74
2021/12/12 11:15:31;;;;;;;118.28;19.70;;;;;;;8.77;100.00;101587.28;5010598;28;20626;-75
2021/12/12 11:18:04;;;;;;;71.15;17.48;;;;;;;8.83;100.00;101592.59;5025083;28;21324;-74
2021/12/12 11:20:38;;;;;;;56.15;16.42;;;;;;;8.89;100.00;101589.06;5008757;28;20504;-75
2021/12/12 11:23:06;;;;;;;57.67;16.48;;;;;;;8.96;100.00;101591.72;5019347;28;20048;-74
2021/12/12 11:25:44;;;;;;;77.25;17.50;;;;;;;8.96;100.00;101584.50;5013341;28;20036;-74
2021/12/12 11:28:20;;;;;;;71.47;15.32;;;;;;;9.01;100.00;101588.38;5013145;28;20033;-75
2021/12/12 11:31:05;;;;;;;91.55;16.60;;;;;;;9.02;100.00;101573.94;5017494;28;20457;-75
2021/12/12 11:33:32;;;;;;;68.53;16.33;;;;;;;9.13;100.00;101581.28;5011602;28;20037;-74
2021/12/12 11:35:59;;;;;;;43.33;13.45;;;;;;;9.11;100.00;101576.13;5011558;28;20630;-73
2021/12/12 11:38:37;;;;;;;64.85;13.93;;;;;;;9.20;100.00;101587.41;5012103;28;20033;-74
2021/12/12 11:41:24;;;;;;;60.75;13.90;;;;;;;9.24;100.00;101589.44;5012905;28;20056;-74
2021/12/12 11:44:14;;;;;;;78.18;14.48;;;;;;;9.27;100.00;101598.88;4999836;28;20072;-74
2021/12/12 11:46:55;;;;;;;73.47;14.25;;;;;;;9.29;100.00;101596.81;5016468;28;20139;-74
2021/12/12 11:49:39;;;;;;;49.33;11.90;;;;;;;9.30;100.00;101595.78;5012751;28;20037;-74
2021/12/12 11:52:08;;;;;;;60.05;12.50;;;;;;;9.36;100.00;101602.09;5013653;28;20033;-75
2021/12/12 11:54:51;;;;;;;79.80;12.35;;;;;;;9.44;100.00;101599.97;5014553;28;20446;-76
2021/12/12 11:57:34;;;;;;;77.57;11.15;;;;;;;9.44;100.00;101599.97;5005337;28;20103;-74